Time;durP1;ratioP1;P1;durP2;ratioP2;P2;SDS_P1;SDS_P2;PMS_P1;PMS_P2;Temp;Humidity;BMP_temperature;BMP_pressure;BME280_temperature;BME280_humidity;BME280_pressure;Samples;Min_cycle;Max_cycle;Signal;HPM_P1;HPM_P2
2021/04/12 00:01:25;;;;;;;2.90;2.70;;;3.40;99.90;;;;;;5048623;28;20217;-78
2021/04/12 00:04:25;;;;;;;7.90;3.95;;;3.40;99.90;;;;;;5053662;28;20293;-80
2021/04/12 00:06:57;;;;;;;5.22;3.78;;;3.40;99.90;;;;;;5053175;28;20224;-78
2021/04/12 00:09:33;;;;;;;3.58;3.08;;;3.40;99.90;;;;;;5051730;28;20713;-78
2021/04/12 00:12:16;;;;;;;4.45;3.00;;;3.50;99.90;;;;;;5052942;28;20299;-80
2021/04/12 00:14:52;;;;;;;5.93;3.42;;;3.50;99.90;;;;;;5049013;28;20209;-79
2021/04/12 00:17:27;;;;;;;6.53;3.40;;;3.50;99.90;;;;;;5045464;28;20293;-79
2021/04/12 00:20:03;;;;;;;9.70;3.95;;;3.50;99.90;;;;;;5052206;28;20239;-78
2021/04/12 00:22:35;;;;;;;4.18;3.17;;;3.40;99.90;;;;;;5054132;28;20191;-78
2021/04/12 00:25:12;;;;;;;5.60;3.25;;;3.40;99.90;;;;;;5047886;28;20228;-77
2021/04/12 00:28:04;;;;;;;4.13;3.30;;;3.50;99.90;;;;;;5052491;28;20192;-79
2021/04/12 00:31:02;;;;;;;4.20;3.10;;;3.50;99.90;;;;;;5046892;28;20228;-78
2021/04/12 00:33:40;;;;;;;4.30;2.80;;;3.40;99.90;;;;;;5022681;28;20213;-79
2021/04/12 00:36:45;;;;;;;3.30;2.97;;;3.40;99.90;;;;;;5052262;28;20626;-78
2021/04/12 00:39:17;;;;;;;8.82;2.47;;;3.40;99.90;;;;;;5049833;28;20312;-78
2021/04/12 00:41:50;;;;;;;5.80;3.08;;;3.60;99.90;;;;;;5045298;28;20302;-78
2021/04/12 00:44:19;;;;;;;7.05;2.85;;;3.70;99.90;;;;;;5052251;28;20573;-78
2021/04/12 00:46:59;;;;;;;7.20;3.60;;;3.70;99.90;;;;;;5035788;28;20258;-78
2021/04/12 00:49:38;;;;;;;7.35;3.08;;;3.60;99.90;;;;;;5033613;28;20240;-78
2021/04/12 00:52:34;;;;;;;5.65;3.03;;;3.70;99.90;;;;;;5037014;28;20235;-78
2021/04/12 00:55:10;;;;;;;4.70;3.00;;;3.60;99.90;;;;;;5046416;28;20219;-76
2021/04/12 00:57:40;;;;;;;4.97;2.60;;;3.60;99.90;;;;;;5037966;28;20215;-78
2021/04/12 01:00:25;;;;;;;6.97;3.05;;;3.60;99.90;;;;;;5043100;28;20205;-78
2021/04/12 01:03:15;;;;;;;6.78;3.03;;;3.60;99.90;;;;;;5045066;28;20596;-78
2021/04/12 01:06:07;;;;;;;4.30;2.85;;;3.50;99.90;;;;;;5044821;28;20297;-79
2021/04/12 01:09:15;;;;;;;4.63;2.90;;;3.50;99.90;;;;;;5046290;28;20184;-78
2021/04/12 01:11:51;;;;;;;3.78;2.60;;;3.40;99.90;;;;;;5048558;28;20239;-78
2021/04/12 01:14:52;;;;;;;4.07;2.92;;;3.40;99.90;;;;;;5051618;28;20291;-77
2021/04/12 01:17:57;;;;;;;5.15;2.88;;;3.30;99.90;;;;;;5035007;28;20230;-77
2021/04/12 01:20:42;;;;;;;2.88;2.15;;;3.20;99.90;;;;;;5013507;28;20590;-78
2021/04/12 01:23:34;;;;;;;4.07;2.40;;;3.20;99.90;;;;;;5049314;28;20184;-80
2021/04/12 01:26:13;;;;;;;6.72;3.25;;;3.10;99.90;;;;;;5064490;28;20224;-79
2021/04/12 01:28:51;;;;;;;5.40;2.78;;;3.10;99.90;;;;;;5034497;28;20235;-78
2021/04/12 01:31:37;;;;;;;2.85;2.25;;;3.10;99.90;;;;;;5047522;28;20224;-77
2021/04/12 01:34:38;;;;;;;4.55;3.28;;;3.10;99.90;;;;;;5047965;28;20193;-78
2021/04/12 01:37:27;;;;;;;6.50;3.42;;;3.10;99.90;;;;;;5047433;28;20244;-77
2021/04/12 01:40:10;;;;;;;3.60;2.70;;;3.10;99.90;;;;;;5037364;28;20209;-78
2021/04/12 01:42:46;;;;;;;5.13;3.17;;;3.10;99.90;;;;;;5044019;28;20208;-78
2021/04/12 01:45:21;;;;;;;5.57;3.10;;;3.10;99.90;;;;;;5049367;28;20219;-78
2021/04/12 01:47:59;;;;;;;4.53;2.85;;;3.10;99.90;;;;;;5051945;28;20283;-75
2021/04/12 01:50:28;;;;;;;8.65;3.33;;;3.10;99.90;;;;;;5051379;28;20285;-77
2021/04/12 01:53:09;;;;;;;4.00;2.53;;;3.10;99.90;;;;;;5050872;28;20211;-75
2021/04/12 01:55:53;;;;;;;6.68;2.80;;;3.00;99.90;;;;;;5047501;28;20640;-77
2021/04/12 01:58:43;;;;;;;4.07;2.78;;;3.00;99.90;;;;;;5051869;28;20180;-76
2021/04/12 02:01:24;;;;;;;3.50;3.20;;;2.90;99.90;;;;;;5034205;28;20225;-77
2021/04/12 02:04:10;;;;;;;5.75;2.80;;;2.90;99.90;;;;;;5045813;28;20294;-77
2021/04/12 02:06:52;;;;;;;6.43;3.22;;;2.80;99.90;;;;;;5049556;28;20240;-77
2021/04/12 02:09:42;;;;;;;4.85;3.33;;;2.80;99.90;;;;;;5042219;28;20271;-75
2021/04/12 02:12:14;;;;;;;4.45;3.40;;;2.70;99.90;;;;;;5045966;28;20658;-75
2021/04/12 02:15:05;;;;;;;4.43;3.03;;;2.80;99.90;;;;;;5047666;28;20623;-76
2021/04/12 02:18:06;;;;;;;4.88;3.28;;;2.90;99.90;;;;;;5048398;28;20213;-75
2021/04/12 02:20:48;;;;;;;4.90;3.05;;;2.90;99.90;;;;;;5050967;28;20222;-75
2021/04/12 02:23:36;;;;;;;5.60;3.22;;;2.80;99.90;;;;;;5046752;28;20295;-75
2021/04/12 02:26:19;;;;;;;7.85;3.40;;;2.80;99.90;;;;;;5063325;28;20637;-77
2021/04/12 02:29:09;;;;;;;10.20;3.35;;;2.80;99.90;;;;;;5050316;28;20220;-76
2021/04/12 02:31:38;;;;;;;9.32;3.75;;;2.70;99.90;;;;;;5039091;28;20315;-75
2021/04/12 02:34:24;;;;;;;5.85;3.70;;;2.70;99.90;;;;;;5050429;28;20232;-77
2021/04/12 02:37:18;;;;;;;8.18;3.60;;;2.70;99.90;;;;;;5049289;28;20303;-76
2021/04/12 02:40:02;;;;;;;5.22;3.83;;;2.70;99.90;;;;;;5031632;28;20276;-77
2021/04/12 02:42:43;;;;;;;5.93;3.75;;;2.70;99.90;;;;;;5045998;28;20551;-76
2021/04/12 02:45:48;;;;;;;6.50;3.33;;;2.70;99.90;;;;;;5044391;28;20328;-78
2021/04/12 02:48:37;;;;;;;4.18;3.63;;;2.70;99.90;;;;;;5049556;28;20290;-75
2021/04/12 02:51:28;;;;;;;6.65;3.28;;;2.80;99.90;;;;;;5046533;28;20228;-75
2021/04/12 02:54:12;;;;;;;6.68;4.18;;;2.80;99.90;;;;;;5030564;28;20697;-76
2021/04/12 02:57:11;;;;;;;6.40;3.63;;;2.80;99.90;;;;;;5050183;28;20311;-75
2021/04/12 02:59:53;;;;;;;6.45;3.78;;;2.70;99.90;;;;;;5047567;28;20216;-75
2021/04/12 03:02:39;;;;;;;4.78;3.60;;;2.70;99.90;;;;;;5032023;28;20796;-77
2021/04/12 03:05:08;;;;;;;7.00;4.60;;;2.70;99.90;;;;;;5044039;28;20217;-77
2021/04/12 03:08:05;;;;;;;5.60;3.47;;;2.70;99.90;;;;;;5052168;28;20240;-75
2021/04/12 03:10:58;;;;;;;4.50;3.65;;;2.60;99.90;;;;;;5039323;28;20299;-77
2021/04/12 03:13:55;;;;;;;4.60;3.28;;;2.60;99.90;;;;;;5055027;28;20357;-75
2021/04/12 03:17:02;;;;;;;5.60;3.10;;;2.60;99.90;;;;;;5047203;28;20243;-75
2021/04/12 03:19:47;;;;;;;5.88;3.70;;;2.50;99.90;;;;;;5015828;28;20250;-75
2021/04/12 03:22:30;;;;;;;5.18;3.60;;;2.50;99.90;;;;;;5053891;28;20224;-76
2021/04/12 03:25:21;;;;;;;7.78;5.00;;;2.50;99.90;;;;;;5043677;28;20639;-75
2021/04/12 03:28:07;;;;;;;6.05;4.40;;;2.50;99.90;;;;;;5051861;28;20247;-75
2021/04/12 03:31:28;;;;;;;7.90;4.53;;;2.50;99.90;;;;;;5034889;28;20234;-76
2021/04/12 03:34:26;;;;;;;4.65;3.78;;;2.40;99.90;;;;;;5053922;28;20222;-75
2021/04/12 03:37:17;;;;;;;5.70;4.00;;;2.50;99.90;;;;;;5053928;28;20698;-75
2021/04/12 03:39:52;;;;;;;9.27;5.53;;;2.60;99.90;;;;;;5054506;28;20557;-76
2021/04/12 03:42:30;;;;;;;7.70;5.43;;;2.60;99.90;;;;;;5053607;28;20251;-75
2021/04/12 03:45:16;;;;;;;8.15;5.60;;;2.60;99.90;;;;;;5048739;28;20213;-76
2021/04/12 03:48:00;;;;;;;6.28;4.70;;;2.60;99.90;;;;;;5044999;28;20239;-74
2021/04/12 03:51:06;;;;;;;11.25;5.07;;;2.60;99.90;;;;;;5047143;28;20224;-76
2021/04/12 03:54:00;;;;;;;9.20;5.18;;;2.60;99.90;;;;;;5038848;28;20294;-75
2021/04/12 03:56:47;;;;;;;8.13;4.82;;;2.70;99.90;;;;;;5038742;28;20220;-76
2021/04/12 03:59:39;;;;;;;7.45;4.47;;;2.70;99.90;;;;;;5052327;28;20272;-77
2021/04/12 04:02:31;;;;;;;6.20;4.95;;;2.60;99.90;;;;;;5053041;28;20224;-76
2021/04/12 04:05:16;;;;;;;7.18;5.70;;;2.60;99.90;;;;;;5053111;28;20208;-75
2021/04/12 04:08:10;;;;;;;7.38;5.18;;;2.60;99.90;;;;;;5052768;28;20713;-75
2021/04/12 04:11:03;;;;;;;6.40;5.65;;;2.60;99.90;;;;;;5051604;28;20274;-75
2021/04/12 04:14:00;;;;;;;6.05;5.38;;;2.60;99.90;;;;;;5052631;28;20303;-75
2021/04/12 04:17:06;;;;;;;13.10;6.00;;;2.50;99.90;;;;;;5039289;28;20243;-74
2021/04/12 04:19:57;;;;;;;13.82;5.25;;;2.50;99.90;;;;;;5054073;28;20665;-75
2021/04/12 04:23:01;;;;;;;8.30;5.55;;;2.60;99.90;;;;;;5036193;28;20656;-75
2021/04/12 04:25:43;;;;;;;7.88;5.30;;;2.60;99.90;;;;;;5051604;28;20298;-75
2021/04/12 04:28:25;;;;;;;8.50;5.32;;;2.50;99.90;;;;;;5069870;28;20653;-76
2021/04/12 04:31:25;;;;;;;12.05;5.30;;;2.40;99.90;;;;;;5039091;28;20284;-77
2021/04/12 04:34:21;;;;;;;8.65;6.40;;;2.40;99.90;;;;;;5052034;28;20759;-75
2021/04/12 04:37:09;;;;;;;11.52;7.13;;;2.30;99.90;;;;;;5051719;28;20674;-78
2021/04/12 04:40:15;;;;;;;7.18;5.05;;;2.20;99.90;;;;;;5043442;28;20227;-78
2021/04/12 04:42:48;;;;;;;6.78;5.60;;;2.20;99.90;;;;;;5051974;28;20247;-77
2021/04/12 04:45:31;;;;;;;6.35;5.65;;;2.10;99.90;;;;;;5044007;28;20305;-76
2021/04/12 04:48:33;;;;;;;8.93;5.95;;;2.10;99.90;;;;;;5050517;28;20212;-80
2021/04/12 04:51:15;;;;;;;7.45;5.50;;;2.10;99.90;;;;;;5052588;28;20224;-77
2021/04/12 04:54:18;;;;;;;8.65;6.25;;;2.10;99.90;;;;;;5045384;28;20291;-75
2021/04/12 04:57:02;;;;;;;8.48;5.78;;;2.20;99.90;;;;;;5033054;28;20244;-77
2021/04/12 04:59:56;;;;;;;7.07;5.38;;;2.30;99.90;;;;;;5039400;28;20216;-76
2021/04/12 05:03:03;;;;;;;9.60;6.10;;;2.30;99.90;;;;;;5062023;28;20216;-77
2021/04/12 05:05:49;;;;;;;6.85;5.93;;;2.30;99.90;;;;;;5048690;28;20306;-78
2021/04/12 05:08:40;;;;;;;10.07;7.07;;;2.30;99.90;;;;;;5043576;28;20290;-75
2021/04/12 05:11:28;;;;;;;8.10;7.18;;;2.40;99.90;;;;;;5051815;28;20307;-76
2021/04/12 05:14:09;;;;;;;11.50;7.22;;;2.30;99.90;;;;;;5046945;28;20252;-76
2021/04/12 05:16:38;;;;;;;10.02;6.88;;;2.20;99.90;;;;;;5039337;28;20220;-75
2021/04/12 05:19:49;;;;;;;11.63;7.45;;;2.30;99.90;;;;;;5051719;28;20759;-77
2021/04/12 05:22:34;;;;;;;9.40;6.95;;;2.30;99.90;;;;;;5051133;28;20316;-76
2021/04/12 05:25:18;;;;;;;9.90;8.30;;;2.40;99.90;;;;;;5035257;28;20205;-78
2021/04/12 05:28:41;;;;;;;12.38;7.93;;;2.40;99.90;;;;;;5051450;28;20216;-76
2021/04/12 05:31:34;;;;;;;10.60;7.72;;;2.50;99.90;;;;;;4979855;28;20271;-74
2021/04/12 05:34:09;;;;;;;9.13;7.47;;;2.80;99.90;;;;;;5051541;28;20208;-75
2021/04/12 05:36:52;;;;;;;10.95;8.20;;;3.00;99.90;;;;;;5052319;28;20216;-79
2021/04/12 05:39:33;;;;;;;13.50;7.55;;;3.20;99.90;;;;;;5057600;28;20269;-77
2021/04/12 05:42:37;;;;;;;8.38;7.50;;;3.40;99.90;;;;;;5050985;28;20311;-78
2021/04/12 05:45:29;;;;;;;13.30;7.95;;;3.50;99.90;;;;;;5049241;28;20204;-77
2021/04/12 05:48:14;;;;;;;8.15;7.32;;;4.10;99.90;;;;;;5053686;28;20270;-75
2021/04/12 05:51:08;;;;;;;11.70;8.07;;;4.10;99.90;;;;;;5035267;28;20231;-77
2021/04/12 05:54:04;;;;;;;9.85;8.27;;;4.00;99.90;;;;;;5062460;28;20626;-76
2021/04/12 05:57:08;;;;;;;10.50;7.60;;;3.80;99.90;;;;;;5034758;28;20244;-76
2021/04/12 05:59:52;;;;;;;10.65;7.47;;;3.80;99.90;;;;;;5050414;28;20259;-77
2021/04/12 06:02:28;;;;;;;9.15;7.03;;;3.90;99.90;;;;;;5062908;28;20232;-77
2021/04/12 06:05:09;;;;;;;7.57;6.82;;;3.90;99.90;;;;;;5051678;28;20212;-77
2021/04/12 06:07:54;;;;;;;10.10;7.93;;;4.10;99.90;;;;;;5052291;28;20243;-74
2021/04/12 06:10:33;;;;;;;11.18;7.43;;;4.50;99.90;;;;;;5050472;28;20273;-75
2021/04/12 06:13:33;;;;;;;7.75;7.00;;;4.90;99.90;;;;;;5049573;28;20259;-74
2021/04/12 06:16:31;;;;;;;10.18;6.93;;;5.40;99.90;;;;;;5047360;28;20754;-75
2021/04/12 06:19:16;;;;;;;9.20;6.88;;;5.60;99.90;;;;;;5031869;28;20545;-77
2021/04/12 06:21:43;;;;;;;9.10;6.22;;;5.90;99.90;;;;;;5049399;28;20224;-78
2021/04/12 06:24:30;;;;;;;9.60;6.80;;;6.20;99.90;;;;;;5042559;28;20667;-79
2021/04/12 06:27:38;;;;;;;8.07;7.25;;;6.50;99.90;;;;;;5050579;28;20642;-77
2021/04/12 06:30:38;;;;;;;9.60;6.55;;;6.80;99.90;;;;;;5042688;28;20217;-78
2021/04/12 06:33:32;;;;;;;7.25;6.32;;;7.40;99.90;;;;;;5050952;28;20230;-78
2021/04/12 06:36:38;;;;;;;9.57;8.48;;;7.40;99.90;;;;;;5049411;28;20223;-79
2021/04/12 06:39:50;;;;;;;12.02;7.50;;;7.00;99.90;;;;;;5034870;28;20237;-78
2021/04/12 06:43:10;;;;;;;11.05;6.85;;;6.60;99.90;;;;;;5053557;28;20259;-82
2021/04/12 06:45:57;;;;;;;7.38;6.57;;;6.50;99.90;;;;;;4996489;28;20225;-80
2021/04/12 06:48:58;;;;;;;8.20;7.18;;;6.60;99.90;;;;;;5061033;28;20255;-82
2021/04/12 06:51:43;;;;;;;9.68;7.22;;;6.80;99.90;;;;;;5054450;28;20223;-89
2021/04/12 06:54:27;;;;;;;9.70;7.55;;;6.70;99.90;;;;;;5054405;28;20212;-85
2021/04/12 06:57:24;;;;;;;8.32;6.78;;;6.40;99.90;;;;;;5052388;28;20227;-80
2021/04/12 07:00:21;;;;;;;10.32;8.45;;;6.30;99.90;;;;;;5037159;28;20212;-80
2021/04/12 07:03:06;;;;;;;9.00;8.10;;;6.20;99.90;;;;;;5034586;28;20255;-85
2021/04/12 07:05:45;;;;;;;9.88;8.90;;;6.30;99.90;;;;;;5036247;28;20229;-79
2021/04/12 07:08:35;;;;;;;11.30;8.77;;;6.00;99.90;;;;;;5035221;28;20220;-81
2021/04/12 07:11:46;;;;;;;10.27;8.35;;;5.60;99.90;;;;;;5072329;28;20288;-78
2021/04/12 07:14:50;;;;;;;9.75;8.85;;;5.30;99.90;;;;;;5038620;28;20290;-82
2021/04/12 07:17:44;;;;;;;11.50;9.60;;;5.00;99.90;;;;;;5051153;28;20591;-77
2021/04/12 07:20:28;;;;;;;12.63;10.90;;;4.80;99.90;;;;;;5037749;28;20219;-81
2021/04/12 07:23:13;;;;;;;11.93;10.38;;;4.70;99.90;;;;;;5054487;28;20212;-79
2021/04/12 07:26:09;;;;;;;12.18;10.98;;;4.60;99.90;;;;;;5045105;28;20263;-78
2021/04/12 07:29:36;;;;;;;12.88;11.43;;;4.50;99.90;;;;;;5045665;28;20585;-79
2021/04/12 07:32:44;;;;;;;17.92;11.93;;;4.50;99.90;;;;;;5002417;28;20222;-79
2021/04/12 07:35:23;;;;;;;17.73;12.57;;;4.30;99.90;;;;;;4997592;28;22141;-82
2021/04/12 07:38:23;;;;;;;16.83;13.98;;;4.30;99.90;;;;;;5031689;28;20219;-78
2021/04/12 07:41:15;;;;;;;18.10;14.10;;;4.30;99.90;;;;;;5034438;28;20245;-79
2021/04/12 07:43:53;;;;;;;16.25;13.85;;;4.40;99.90;;;;;;5051827;28;20227;-79
2021/04/12 07:46:38;;;;;;;19.35;13.80;;;4.30;99.90;;;;;;5036838;28;20590;-82
2021/04/12 07:49:46;;;;;;;21.98;15.10;;;4.30;99.90;;;;;;5052978;28;20739;-80
2021/04/12 07:52:51;;;;;;;16.58;14.00;;;4.40;99.90;;;;;;5056429;28;20220;-77
2021/04/12 07:55:52;;;;;;;18.02;14.80;;;4.40;99.90;;;;;;5031510;28;20287;-79
2021/04/12 07:58:50;;;;;;;21.10;15.10;;;4.50;99.90;;;;;;5055333;28;20261;-81
2021/04/12 08:01:37;;;;;;;17.52;15.02;;;4.60;99.90;;;;;;5053733;28;20228;-79
2021/04/12 08:04:13;;;;;;;19.98;14.98;;;4.60;99.90;;;;;;5055614;28;20216;-78
2021/04/12 08:06:59;;;;;;;19.77;14.70;;;4.50;99.90;;;;;;5036073;28;20220;-80
2021/04/12 08:09:44;;;;;;;17.40;15.40;;;4.50;99.90;;;;;;5019642;28;20316;-80
2021/04/12 08:12:53;;;;;;;22.23;14.55;;;4.50;99.90;;;;;;5054237;28;20216;-79
2021/04/12 08:16:00;;;;;;;18.35;14.65;;;4.40;99.90;;;;;;5054309;28;20282;-79
2021/04/12 08:19:09;;;;;;;16.35;14.55;;;4.30;99.90;;;;;;5032295;28;20625;-79
2021/04/12 08:22:13;;;;;;;21.00;16.80;;;4.30;99.90;;;;;;5052535;28;20262;-79
2021/04/12 08:24:43;;;;;;;19.92;15.45;;;4.30;99.90;;;;;;5039395;28;20296;-81
2021/04/12 08:27:47;;;;;;;16.75;15.07;;;4.30;99.90;;;;;;5035438;28;20214;-79
2021/04/12 08:30:48;;;;;;;18.00;14.68;;;4.40;99.90;;;;;;5025260;28;20701;-81
2021/04/12 08:33:49;;;;;;;15.55;12.85;;;4.40;99.90;;;;;;5034924;28;20275;-76
2021/04/12 08:36:30;;;;;;;13.27;11.77;;;4.40;99.90;;;;;;5053488;28;20620;-77
2021/04/12 08:39:19;;;;;;;12.00;10.68;;;4.50;99.90;;;;;;5054282;28;20212;-80
2021/04/12 08:42:34;;;;;;;15.45;13.32;;;4.50;99.90;;;;;;5055226;28;20212;-78
2021/04/12 08:45:25;;;;;;;15.02;12.25;;;4.50;99.90;;;;;;5029973;28;20459;-79
2021/04/12 08:48:19;;;;;;;15.18;12.75;;;4.50;99.90;;;;;;5053182;28;20262;-79
2021/04/12 08:51:11;;;;;;;14.50;12.52;;;4.60;99.90;;;;;;5050819;28;20232;-77
2021/04/12 08:54:05;;;;;;;14.52;12.98;;;4.50;99.90;;;;;;5052138;28;20302;-78
2021/04/12 08:56:47;;;;;;;18.50;12.57;;;4.50;99.90;;;;;;5054073;28;20255;-86
2021/04/12 08:59:44;;;;;;;14.85;12.32;;;4.50;99.90;;;;;;5052353;28;20221;-78
2021/04/12 09:02:49;;;;;;;15.57;13.65;;;4.50;99.90;;;;;;5049562;28;20221;-75
2021/04/12 09:05:31;;;;;;;15.07;11.77;;;4.50;99.90;;;;;;5034296;28;20220;-78
2021/04/12 09:08:36;;;;;;;15.43;12.27;;;4.60;99.90;;;;;;5034020;28;20697;-76
2021/04/12 09:11:51;;;;;;;13.60;12.20;;;4.50;99.90;;;;;;5044983;28;20216;-76
2021/04/12 09:14:38;;;;;;;12.70;11.25;;;4.50;99.90;;;;;;5042091;28;20271;-77
2021/04/12 09:17:40;;;;;;;12.70;11.25;;;4.50;99.90;;;;;;5048038;28;20223;-79
2021/04/12 09:20:27;;;;;;;11.98;10.60;;;4.50;99.90;;;;;;5051815;28;20212;-78
2021/04/12 09:23:31;;;;;;;12.45;9.23;;;4.70;99.90;;;;;;5053209;28;20726;-78
2021/04/12 09:26:32;;;;;;;14.50;9.15;;;4.70;99.90;;;;;;5052802;28;20222;-79
2021/04/12 09:29:13;;;;;;;10.25;8.82;;;4.90;99.90;;;;;;5052363;28;20251;-79
2021/04/12 09:31:58;;;;;;;12.65;8.73;;;5.00;99.90;;;;;;5023800;28;20303;-78
2021/04/12 09:34:31;;;;;;;10.35;8.20;;;5.10;99.90;;;;;;5045265;28;20578;-82
2021/04/12 09:37:22;;;;;;;10.30;9.40;;;5.20;99.90;;;;;;5053650;28;20223;-81
2021/04/12 09:40:30;;;;;;;10.27;9.18;;;5.30;99.90;;;;;;5044965;28;20613;-79
2021/04/12 09:43:09;;;;;;;12.20;8.38;;;5.50;99.90;;;;;;5051473;28;20204;-80
2021/04/12 09:46:23;;;;;;;11.02;9.68;;;5.60;99.90;;;;;;5041062;28;20220;-78
2021/04/12 09:49:28;;;;;;;11.98;9.10;;;5.70;99.90;;;;;;5051109;28;20200;-79
2021/04/12 09:52:00;;;;;;;9.52;8.23;;;6.10;99.90;;;;;;5050747;28;20224;-78
2021/04/12 09:54:45;;;;;;;10.68;8.85;;;6.50;99.90;;;;;;5046782;28;20220;-81
2021/04/12 09:57:30;;;;;;;9.90;7.57;;;6.90;99.90;;;;;;5064635;28;20278;-80
2021/04/12 10:00:12;;;;;;;7.15;6.22;;;7.50;99.90;;;;;;5017166;28;20209;-79
2021/04/12 10:03:15;;;;;;;6.68;5.80;;;8.00;99.90;;;;;;5051659;28;20233;-78
2021/04/12 10:06:17;;;;;;;5.88;5.30;;;8.20;99.90;;;;;;5049966;28;20670;-81
2021/04/12 10:09:15;;;;;;;6.47;5.28;;;8.70;99.90;;;;;;5009915;28;20807;-80
2021/04/12 10:12:02;;;;;;;4.60;4.10;;;9.00;99.90;;;;;;5042770;28;20271;-80
2021/04/12 10:15:08;;;;;;;8.38;4.05;;;8.90;99.90;;;;;;5048056;28;20224;-81
2021/04/12 10:17:49;;;;;;;5.10;4.28;;;8.60;99.90;;;;;;5048667;28;20556;-79
2021/04/12 10:20:33;;;;;;;7.25;4.88;;;8.50;99.90;;;;;;5051267;28;20304;-77
2021/04/12 10:23:14;;;;;;;4.65;4.00;;;8.50;99.90;;;;;;5030995;28;20205;-80
2021/04/12 10:25:58;;;;;;;4.72;3.65;;;8.50;99.90;;;;;;5034289;28;20247;-78
2021/04/12 10:28:48;;;;;;;3.97;2.88;;;8.40;99.90;;;;;;5050306;28;20695;-82
2021/04/12 10:31:30;;;;;;;3.35;2.50;;;8.20;99.90;;;;;;5049222;28;20243;-78
2021/04/12 10:34:03;;;;;;;4.57;2.45;;;8.00;99.90;;;;;;5034102;28;20682;-78
2021/04/12 10:36:48;;;;;;;3.92;2.30;;;7.70;99.90;;;;;;5051338;28;20232;-79
2021/04/12 10:39:41;;;;;;;5.20;2.65;;;7.60;99.90;;;;;;5046379;28;20244;-79
2021/04/12 10:42:21;;;;;;;4.50;2.50;;;7.50;99.90;;;;;;4997053;28;20228;-78
2021/04/12 10:45:02;;;;;;;3.92;2.92;;;7.40;99.90;;;;;;5048475;28;20288;-79
2021/04/12 10:47:48;;;;;;;2.67;1.90;;;7.20;99.90;;;;;;5049531;28;20230;-78
2021/04/12 10:50:27;;;;;;;4.22;3.25;;;7.30;99.90;;;;;;5051023;28;20254;-77
2021/04/12 10:53:32;;;;;;;3.33;2.70;;;7.40;99.90;;;;;;5033142;28;20209;-78
2021/04/12 10:56:16;;;;;;;3.40;3.08;;;7.50;99.90;;;;;;5050178;28;20227;-81
2021/04/12 10:58:56;;;;;;;3.25;2.70;;;7.30;99.90;;;;;;5049890;28;20254;-81
2021/04/12 11:01:50;;;;;;;3.90;2.38;;;7.30;99.90;;;;;;5037016;28;20212;-78
2021/04/12 11:04:50;;;;;;;3.72;2.13;;;7.20;99.90;;;;;;5042251;28;20769;-78
2021/04/12 11:08:02;;;;;;;2.30;2.10;;;7.10;99.90;;;;;;5049623;28;21715;-78
2021/04/12 11:10:43;;;;;;;1.63;1.33;;;6.90;99.90;;;;;;5020265;28;20227;-78
2021/04/12 11:13:11;;;;;;;2.67;2.40;;;6.70;99.90;;;;;;5030647;28;20710;-78
2021/04/12 11:15:38;;;;;;;4.28;2.20;;;6.70;99.90;;;;;;5030714;28;20259;-86
2021/04/12 11:18:11;;;;;;;2.95;2.65;;;6.90;99.90;;;;;;5044503;28;20307;-79
2021/04/12 11:20:49;;;;;;;2.10;1.27;;;6.70;99.90;;;;;;5051926;28;20355;-76
2021/04/12 11:23:55;;;;;;;2.10;1.60;;;6.20;99.90;;;;;;5050336;28;20240;-78
2021/04/12 11:26:39;;;;;;;2.13;1.33;;;5.60;99.90;;;;;;5038001;28;20256;-80
2021/04/12 11:29:25;;;;;;;1.40;1.30;;;5.40;99.90;;;;;;5054635;28;20220;-76
2021/04/12 11:32:09;;;;;;;2.00;1.65;;;5.20;99.90;;;;;;5049776;28;20571;-80
2021/04/12 11:34:41;;;;;;;2.10;1.88;;;5.10;99.90;;;;;;5057028;28;20597;-80
2021/04/12 11:37:21;;;;;;;3.13;1.83;;;5.10;99.90;;;;;;5057809;28;20236;-78
2021/04/12 11:40:04;;;;;;;2.03;1.60;;;5.10;99.90;;;;;;5055266;28;20229;-82
2021/04/12 11:42:37;;;;;;;3.40;3.10;;;5.00;99.90;;;;;;5051725;28;20216;-84
2021/04/12 11:45:08;;;;;;;3.15;2.08;;;5.00;99.90;;;;;;5050026;28;20201;-84
2021/04/12 11:48:02;;;;;;;2.58;2.28;;;5.10;99.90;;;;;;5037758;28;20209;-83
2021/04/12 11:50:35;;;;;;;4.32;2.88;;;5.20;99.90;;;;;;5051016;28;20271;-87
2021/04/12 11:53:26;;;;;;;4.82;3.10;;;5.30;99.90;;;;;;5035408;28;20217;-84
2021/04/12 11:56:12;;;;;;;3.28;2.10;;;5.40;99.90;;;;;;5038238;28;20714;-89
2021/04/12 11:58:50;;;;;;;2.65;2.20;;;5.50;99.90;;;;;;5038837;28;20250;-83
2021/04/12 12:01:41;;;;;;;2.90;2.22;;;5.70;99.90;;;;;;5048991;28;20574;-85
2021/04/12 12:04:38;;;;;;;2.78;1.95;;;5.60;99.90;;;;;;5045466;28;20219;-83
2021/04/12 12:07:27;;;;;;;2.38;1.60;;;5.60;99.90;;;;;;5053089;28;20235;-82
2021/04/12 12:10:19;;;;;;;1.80;1.58;;;5.40;99.90;;;;;;5051129;28;20243;-84
2021/04/12 12:13:12;;;;;;;2.20;1.50;;;5.30;99.90;;;;;;5053888;28;20262;-82
2021/04/12 12:16:00;;;;;;;3.08;1.80;;;5.30;99.90;;;;;;5009171;28;20233;-83
2021/04/12 12:18:35;;;;;;;1.70;1.60;;;5.30;99.90;;;;;;5054113;28;20216;-84
2021/04/12 12:21:25;;;;;;;2.08;1.88;;;5.60;99.90;;;;;;5051734;28;20215;-84
2021/04/12 12:24:12;;;;;;;2.85;1.55;;;5.80;99.90;;;;;;5047905;28;20743;-83
2021/04/12 12:27:11;;;;;;;3.50;1.85;;;6.10;99.90;;;;;;5047906;28;20204;-84
2021/04/12 12:29:44;;;;;;;3.58;2.45;;;6.30;99.90;;;;;;5028321;28;20251;-82
2021/04/12 12:32:17;;;;;;;4.38;2.60;;;6.30;99.90;;;;;;5048644;28;20243;-81
2021/04/12 12:34:57;;;;;;;3.15;2.60;;;6.10;99.90;;;;;;5050864;28;20217;-83
2021/04/12 12:37:30;;;;;;;3.10;2.63;;;5.60;99.90;;;;;;5049957;28;20232;-84
2021/04/12 12:39:59;;;;;;;4.85;2.60;;;5.30;99.90;;;;;;5031302;28;20232;-86
2021/04/12 12:42:38;;;;;;;3.55;3.28;;;5.10;99.90;;;;;;5068735;28;20188;-86
2021/04/12 12:45:25;;;;;;;2.88;2.60;;;5.00;99.90;;;;;;5031748;28;20683;-92
2021/04/12 12:47:58;;;;;;;2.88;2.60;;;4.90;99.90;;;;;;5052192;28;20213;-86
2021/04/12 12:51:03;;;;;;;2.67;2.47;;;4.90;99.90;;;;;;5036385;28;20224;-83
2021/04/12 12:53:34;;;;;;;3.35;3.05;;;4.80;99.90;;;;;;5036663;28;20231;-83
2021/04/12 12:56:15;;;;;;;2.83;2.25;;;4.90;99.90;;;;;;5055853;28;20224;-86
2021/04/12 12:59:22;;;;;;;4.13;3.47;;;5.10;99.90;;;;;;5055012;28;20266;-86
2021/04/12 13:02:20;;;;;;;2.83;2.45;;;5.40;99.90;;;;;;5035326;28;20275;-85
2021/04/12 13:04:55;;;;;;;3.80;3.50;;;5.50;99.90;;;;;;5061952;28;20295;-85
2021/04/12 13:07:22;;;;;;;4.07;3.50;;;5.50;99.90;;;;;;5051937;28;20213;-83
2021/04/12 13:10:15;;;;;;;3.75;3.33;;;5.50;99.90;;;;;;5054217;28;20212;-85
2021/04/12 13:12:51;;;;;;;4.20;3.90;;;5.50;99.90;;;;;;5051845;28;20212;-83
2021/04/12 13:15:37;;;;;;;4.57;4.18;;;5.80;99.90;;;;;;5049686;28;20739;-81
2021/04/12 13:18:09;;;;;;;4.85;3.78;;;6.00;99.90;;;;;;5041651;28;20279;-84
2021/04/12 13:20:45;;;;;;;5.30;3.80;;;6.10;99.90;;;;;;5052777;28;20228;-84
2021/04/12 13:23:23;;;;;;;4.00;3.70;;;6.10;99.90;;;;;;5049450;28;20782;-83
2021/04/12 13:25:52;;;;;;;3.28;3.05;;;6.20;99.90;;;;;;5051161;28;20231;-87
2021/04/12 13:28:41;;;;;;;3.45;3.20;;;6.30;99.90;;;;;;5054559;28;20213;-81
2021/04/12 13:31:21;;;;;;;3.72;3.42;;;6.50;99.90;;;;;;5029340;28;20220;-81
2021/04/12 13:33:54;;;;;;;4.15;3.35;;;6.50;99.90;;;;;;5036639;28;20215;-79
2021/04/12 13:36:20;;;;;;;4.00;3.70;;;6.60;99.90;;;;;;5050230;28;20236;-79
2021/04/12 13:38:50;;;;;;;6.35;3.80;;;6.80;99.90;;;;;;5047285;28;20217;-80
2021/04/12 13:41:27;;;;;;;5.00;4.28;;;6.80;99.90;;;;;;5049979;28;20235;-79
2021/04/12 13:44:09;;;;;;;4.60;3.78;;;6.90;99.90;;;;;;5047168;28;20203;-83
2021/04/12 13:47:03;;;;;;;4.60;3.92;;;7.10;99.90;;;;;;5047194;28;20224;-84
2021/04/12 13:49:42;;;;;;;5.03;3.25;;;7.20;99.90;;;;;;5051139;28;20701;-82
2021/04/12 13:52:37;;;;;;;4.00;2.83;;;7.30;99.90;;;;;;5039625;28;20622;-83
2021/04/12 13:55:18;;;;;;;2.72;2.50;;;7.30;99.90;;;;;;5036086;28;20548;-80
2021/04/12 13:57:50;;;;;;;3.88;2.65;;;7.30;99.90;;;;;;5051497;28;20180;-79
2021/04/12 14:00:34;;;;;;;2.90;2.70;;;7.30;99.90;;;;;;5048526;28;20224;-77
2021/04/12 14:03:22;;;;;;;3.05;2.75;;;7.30;99.90;;;;;;5051338;28;20211;-79
2021/04/12 14:06:03;;;;;;;3.47;2.55;;;7.40;99.90;;;;;;5049893;28;20212;-82
2021/04/12 14:08:52;;;;;;;3.28;2.67;;;7.40;99.90;;;;;;5052617;28;20220;-80
2021/04/12 14:11:26;;;;;;;3.08;2.70;;;7.40;99.90;;;;;;5047763;28;20228;-78
2021/04/12 14:14:07;;;;;;;2.72;2.53;;;7.40;99.90;;;;;;5052166;28;20212;-79
2021/04/12 14:16:39;;;;;;;3.50;2.30;;;7.40;99.90;;;;;;5042612;28;20319;-80
2021/04/12 14:19:12;;;;;;;3.63;2.42;;;7.40;99.90;;;;;;5051108;28;20295;-78
2021/04/12 14:21:49;;;;;;;3.85;2.65;;;7.40;99.90;;;;;;5051637;28;20241;-80
2021/04/12 14:24:31;;;;;;;4.07;3.15;;;7.40;99.90;;;;;;5037878;28;20263;-80
2021/04/12 14:27:02;;;;;;;3.10;2.80;;;7.30;99.90;;;;;;5022897;28;20228;-80
2021/04/12 14:29:46;;;;;;;3.75;3.45;;;7.40;99.90;;;;;;5046994;28;20220;-78
2021/04/12 14:32:19;;;;;;;3.17;2.88;;;7.30;99.90;;;;;;5031257;28;20221;-81
2021/04/12 14:34:55;;;;;;;2.92;2.72;;;7.40;99.90;;;;;;5041444;28;20690;-79
2021/04/12 14:37:26;;;;;;;3.95;2.75;;;7.40;99.90;;;;;;5050069;28;20234;-80
2021/04/12 14:39:53;;;;;;;5.07;3.30;;;7.30;99.90;;;;;;5025656;28;20216;-78